Time;durP1;ratioP1;P1;durP2;ratioP2;P2;SDS_P1;SDS_P2;PMS_P1;PMS_P2;Temp;Humidity;BMP_temperature;BMP_pressure;BME280_temperature;BME280_humidity;BME280_pressure;Samples;Min_cycle;Max_cycle;Signal;HPM_P1;HPM_P2
2023/06/13 00:00:54;;;;;;;;;;;;;;;23.03;35.70;101207.88;5006768;28;4351;-59
2023/06/13 00:03:21;;;;;;;;;;;;;;;23.03;35.78;101207.88;5007190;28;4197;-59
2023/06/13 00:05:47;;;;;;;;;;;;;;;23.02;35.75;101217.19;5002782;28;4177;-59
2023/06/13 00:08:17;;;;;;;;;;;;;;;22.97;35.65;101208.31;5002898;28;4053;-60
2023/06/13 00:10:45;;;;;;;;;;;;;;;22.96;35.92;101214.78;5015610;28;4280;-60
2023/06/13 00:13:12;;;;;;;;;;;;;;;22.95;35.81;101216.94;5001426;28;4050;-59
2023/06/13 00:15:41;;;;;;;;;;;;;;;22.93;35.92;101213.94;5000157;28;4187;-59
2023/06/13 00:18:07;;;;;;;;;;;;;;;22.93;35.83;101208.16;5005172;28;4078;-59
2023/06/13 00:20:34;;;;;;;;;;;;;;;22.92;35.77;101200.91;5006800;28;4196;-59
2023/06/13 00:23:03;;;;;;;;;;;;;;;22.90;36.04;101203.69;5003755;28;4165;-58
2023/06/13 00:25:30;;;;;;;;;;;;;;;22.90;35.90;101203.69;5006673;28;4227;-60
2023/06/13 00:27:56;;;;;;;;;;;;;;;22.89;36.10;101205.13;5006695;28;4134;-59
2023/06/13 00:30:23;;;;;;;;;;;;;;;22.89;35.79;101208.00;5003689;28;4210;-60
2023/06/13 00:32:49;;;;;;;;;;;;;;;22.87;35.77;101207.91;5011356;28;4188;-59
2023/06/13 00:35:16;;;;;;;;;;;;;;;22.86;36.00;101203.56;5006770;28;4251;-59
2023/06/13 00:37:44;;;;;;;;;;;;;;;22.85;36.32;101202.06;5002377;28;4020;-59
2023/06/13 00:40:11;;;;;;;;;;;;;;;22.86;36.26;101192.00;5014733;28;4866;-59
2023/06/13 00:42:38;;;;;;;;;;;;;;;22.84;36.07;101189.03;5003468;28;4058;-59
2023/06/13 00:45:17;;;;;;;;;;;;;;;22.81;36.15;101190.31;5015436;28;4311;-60
2023/06/13 00:47:45;;;;;;;;;;;;;;;22.81;36.16;101187.44;5008419;28;4169;-60
2023/06/13 00:50:12;;;;;;;;;;;;;;;22.81;36.47;101190.31;5010185;28;4074;-60
2023/06/13 00:52:39;;;;;;;;;;;;;;;22.78;36.21;101188.75;5006231;28;4223;-59
2023/06/13 00:55:06;;;;;;;;;;;;;;;22.77;36.45;101187.28;5006890;28;4161;-59
2023/06/13 00:57:33;;;;;;;;;;;;;;;22.77;36.20;101181.50;5005725;28;4281;-59
2023/06/13 01:00:01;;;;;;;;;;;;;;;22.75;36.45;101181.44;5003884;28;4181;-59
2023/06/13 01:02:29;;;;;;;;;;;;;;;22.74;36.49;101179.94;4993512;28;4236;-60
2023/06/13 01:04:57;;;;;;;;;;;;;;;22.72;36.38;101176.97;5001032;28;4153;-60
2023/06/13 01:07:29;;;;;;;;;;;;;;;22.73;36.27;101184.22;5005825;28;4202;-59
2023/06/13 01:09:57;;;;;;;;;;;;;;;22.70;36.38;101182.63;5006789;28;4248;-59
2023/06/13 01:12:27;;;;;;;;;;;;;;;22.69;36.48;101175.41;5002683;28;4517;-59
2023/06/13 01:14:59;;;;;;;;;;;;;;;22.66;36.59;101176.72;5000347;28;4155;-59
2023/06/13 01:17:34;;;;;;;;;;;;;;;22.65;36.41;101172.34;5002756;28;4186;-59
2023/06/13 01:20:04;;;;;;;;;;;;;;;22.65;36.58;101173.06;5004991;28;4190;-59
2023/06/13 01:22:35;;;;;;;;;;;;;;;22.67;36.64;101166.66;5001495;28;4115;-59
2023/06/13 01:25:08;;;;;;;;;;;;;;;22.62;36.50;101171.50;5002829;28;4060;-59
2023/06/13 01:27:36;;;;;;;;;;;;;;;22.64;36.46;101165.09;5001322;28;4059;-60
2023/06/13 01:30:03;;;;;;;;;;;;;;;22.61;36.50;101163.50;5002875;28;4102;-59
2023/06/13 01:32:29;;;;;;;;;;;;;;;22.58;36.56;101165.56;4993352;28;3963;-59
2023/06/13 01:34:56;;;;;;;;;;;;;;;22.56;36.26;101166.22;5013857;28;4192;-59
2023/06/13 01:37:22;;;;;;;;;;;;;;;22.58;36.56;101162.69;4994227;28;4141;-58
2023/06/13 01:39:48;;;;;;;;;;;;;;;22.55;36.66;101164.72;4994870;28;4326;-58
2023/06/13 01:42:15;;;;;;;;;;;;;;;22.54;36.61;101174.81;5004231;28;4037;-59
2023/06/13 01:44:41;;;;;;;;;;;;;;;22.53;36.35;101158.88;4985817;28;4131;-59
2023/06/13 01:47:12;;;;;;;;;;;;;;;22.52;36.22;101166.06;5005134;28;4338;-59
2023/06/13 01:49:58;;;;;;;;;;;;;;;22.52;36.60;101160.28;5002874;28;4164;-59
2023/06/13 01:52:33;;;;;;;;;;;;;;;22.50;36.49;101157.31;4997770;28;4125;-59
2023/06/13 01:55:02;;;;;;;;;;;;;;;22.50;36.33;101157.31;4992928;28;4121;-59
2023/06/13 01:57:31;;;;;;;;;;;;;;;22.49;36.32;101149.31;5008222;28;4141;-59
2023/06/13 01:59:58;;;;;;;;;;;;;;;22.48;36.37;101159.38;4999509;28;5065;-60
2023/06/13 02:02:24;;;;;;;;;;;;;;;22.47;36.57;101149.97;4992928;28;4215;-59
2023/06/13 02:04:51;;;;;;;;;;;;;;;22.47;36.20;101152.88;4994883;28;4024;-59
2023/06/13 02:07:18;;;;;;;;;;;;;;;22.45;36.52;101158.53;5004527;28;4241;-59
2023/06/13 02:09:44;;;;;;;;;;;;;;;22.45;36.54;101154.91;5005503;28;4119;-59
2023/06/13 02:12:11;;;;;;;;;;;;;;;22.43;36.70;101158.47;5001121;28;4053;-59
2023/06/13 02:14:39;;;;;;;;;;;;;;;22.43;36.42;101151.94;5000069;28;4068;-59
2023/06/13 02:17:06;;;;;;;;;;;;;;;22.39;36.49;101158.28;5009848;28;4093;-59
2023/06/13 02:19:33;;;;;;;;;;;;;;;22.37;36.41;101149.53;5000949;28;4241;-60
2023/06/13 02:21:59;;;;;;;;;;;;;;;22.39;36.58;101158.28;5004109;28;4234;-59
2023/06/13 02:24:26;;;;;;;;;;;;;;;22.39;36.47;101149.63;5002138;28;4038;-59
2023/06/13 02:26:52;;;;;;;;;;;;;;;22.36;36.71;101160.34;5000760;28;4349;-59
2023/06/13 02:29:20;;;;;;;;;;;;;;;22.36;36.73;101162.47;5005293;28;4036;-59
2023/06/13 02:31:46;;;;;;;;;;;;;;;22.32;36.77;101165.19;4998881;28;4051;-60
2023/06/13 02:34:13;;;;;;;;;;;;;;;22.30;36.54;101167.97;5006319;28;4228;-59
2023/06/13 02:36:39;;;;;;;;;;;;;;;22.34;36.72;101163.13;5001817;28;4209;-59
2023/06/13 02:39:07;;;;;;;;;;;;;;;22.31;36.82;101163.69;5000131;28;5047;-59
2023/06/13 02:41:34;;;;;;;;;;;;;;;22.32;36.88;101160.16;5001158;28;4086;-59
2023/06/13 02:44:00;;;;;;;;;;;;;;;22.30;36.81;101156.44;4998154;28;4177;-59
2023/06/13 02:46:27;;;;;;;;;;;;;;;22.28;36.70;101159.97;5001511;28;4084;-60
2023/06/13 02:48:54;;;;;;;;;;;;;;;22.29;36.90;101166.50;5009751;28;4165;-60
2023/06/13 02:51:21;;;;;;;;;;;;;;;22.28;36.69;101162.13;5001870;28;4124;-60
2023/06/13 02:53:47;;;;;;;;;;;;;;;22.25;36.96;101163.44;4999612;28;4179;-60
2023/06/13 02:56:14;;;;;;;;;;;;;;;22.26;36.87;101156.25;5001537;28;4036;-60
2023/06/13 02:58:41;;;;;;;;;;;;;;;22.27;36.86;101160.66;5000892;28;4247;-60
2023/06/13 03:01:08;;;;;;;;;;;;;;;22.23;37.02;101154.69;5001057;28;4255;-60
2023/06/13 03:03:34;;;;;;;;;;;;;;;22.21;36.76;101161.13;4997912;28;4151;-60
2023/06/13 03:06:02;;;;;;;;;;;;;;;22.22;37.00;101156.06;5007469;28;4097;-60
2023/06/13 03:08:34;;;;;;;;;;;;;;;22.21;36.84;101151.69;5008521;28;4402;-60
2023/06/13 03:11:02;;;;;;;;;;;;;;;22.21;36.93;101157.47;5005500;28;4011;-60
2023/06/13 03:13:29;;;;;;;;;;;;;;;22.18;36.69;101157.38;4999080;28;4443;-59
2023/06/13 03:15:57;;;;;;;;;;;;;;;22.17;36.76;101141.47;5001293;28;4176;-60
2023/06/13 03:18:25;;;;;;;;;;;;;;;22.16;36.84;101142.84;5001244;28;4395;-60
2023/06/13 03:20:53;;;;;;;;;;;;;;;22.16;37.08;101142.84;5004026;28;4041;-60
2023/06/13 03:23:21;;;;;;;;;;;;;;;22.14;36.96;101148.53;5006232;28;4958;-60
2023/06/13 03:25:48;;;;;;;;;;;;;;;22.12;36.97;101148.44;5001718;28;5901;-60
2023/06/13 03:28:15;;;;;;;;;;;;;;;22.14;37.11;101148.53;5017487;28;4220;-60
2023/06/13 03:30:42;;;;;;;;;;;;;;;22.13;37.16;101152.09;5002678;28;4177;-60
2023/06/13 03:33:09;;;;;;;;;;;;;;;22.13;37.12;101138.41;4999800;28;4132;-60
2023/06/13 03:35:38;;;;;;;;;;;;;;;22.11;37.23;101134.69;5006368;28;4589;-60
2023/06/13 03:38:06;;;;;;;;;;;;;;;22.10;37.35;101136.81;5002130;28;4088;-60
2023/06/13 03:40:32;;;;;;;;;;;;;;;22.08;37.49;101136.75;5006567;28;4203;-60
2023/06/13 03:42:59;;;;;;;;;;;;;;;22.10;37.51;101144.72;5016730;28;4162;-60
2023/06/13 03:45:25;;;;;;;;;;;;;;;22.08;37.59;101136.75;4999386;28;4231;-60
2023/06/13 03:47:54;;;;;;;;;;;;;;;22.07;37.54;101146.78;5007721;28;4495;-59
2023/06/13 03:50:22;;;;;;;;;;;;;;;22.07;37.71;101146.78;5008946;28;4539;-60
2023/06/13 03:52:48;;;;;;;;;;;;;;;22.07;37.75;101141.03;5004172;28;4151;-60
2023/06/13 03:55:16;;;;;;;;;;;;;;;22.05;37.97;101143.81;5011100;28;4043;-60
2023/06/13 03:57:43;;;;;;;;;;;;;;;22.04;38.19;101142.34;5002539;28;4284;-60
2023/06/13 04:00:13;;;;;;;;;;;;;;;22.04;38.18;101136.56;5005275;28;4785;-60
2023/06/13 04:02:41;;;;;;;;;;;;;;;22.05;38.07;101138.03;5000999;28;4664;-60
2023/06/13 04:05:12;;;;;;;;;;;;;;;22.06;38.21;101133.78;4999545;28;5377;-59
2023/06/13 04:07:39;;;;;;;;;;;;;;;21.26;39.67;101138.81;4995896;28;4231;-60
2023/06/13 04:10:05;;;;;;;;;;;;;;;21.28;39.90;101126.59;4998821;28;4732;-59
2023/06/13 04:12:35;;;;;;;;;;;;;;;21.20;40.04;101132.75;5004137;28;4553;-75
2023/06/13 04:15:02;;;;;;;;;;;;;;;21.11;40.05;101130.88;5004281;28;4047;-61
2023/06/13 04:17:28;;;;;;;;;;;;;;;21.18;40.04;101124.00;5003190;28;4217;-62
2023/06/13 04:19:55;;;;;;;;;;;;;;;21.08;40.01;101123.53;5004105;28;4175;-62
2023/06/13 04:22:21;;;;;;;;;;;;;;;21.12;40.21;101135.25;5003994;28;4220;-62
2023/06/13 04:24:48;;;;;;;;;;;;;;;21.09;40.47;101125.00;5009286;28;4084;-62
2023/06/13 04:27:19;;;;;;;;;;;;;;;21.04;40.43;101121.19;5004396;28;4228;-62
2023/06/13 04:29:49;;;;;;;;;;;;;;;20.90;40.82;101115.50;4998223;28;4049;-62
2023/06/13 04:32:17;;;;;;;;;;;;;;;20.88;41.15;101129.06;5017179;28;4102;-62
2023/06/13 04:34:44;;;;;;;;;;;;;;;20.92;41.02;101124.25;5003172;28;4186;-62
2023/06/13 04:37:11;;;;;;;;;;;;;;;20.95;41.15;101121.47;4998774;28;4121;-65
2023/06/13 04:39:37;;;;;;;;;;;;;;;20.91;41.23;101131.41;5001277;28;4356;-64
2023/06/13 04:42:05;;;;;;;;;;;;;;;20.97;41.26;101127.31;4998081;28;4383;-66
2023/06/13 04:44:33;;;;;;;;;;;;;;;20.47;42.19;101127.75;5001354;28;4224;-64
2023/06/13 04:47:01;;;;;;;;;;;;;;;20.51;42.17;101127.97;5001830;28;4212;-64
2023/06/13 04:49:27;;;;;;;;;;;;;;;20.60;42.19;101126.28;5007458;28;4460;-64
2023/06/13 04:51:54;;;;;;;;;;;;;;;20.61;42.13;101133.50;5003644;28;4285;-64
2023/06/13 04:54:21;;;;;;;;;;;;;;;20.77;41.93;101127.06;5007493;28;4169;-64
2023/06/13 04:56:49;;;;;;;;;;;;;;;20.74;42.14;101134.13;5006664;28;4167;-64
2023/06/13 04:59:15;;;;;;;;;;;;;;;20.69;42.80;101144.69;5005944;28;4048;-64
2023/06/13 05:01:43;;;;;;;;;;;;;;;20.59;42.79;101142.06;5006355;28;4055;-64
2023/06/13 05:04:10;;;;;;;;;;;;;;;20.57;42.71;101141.97;5003199;28;4411;-64
2023/06/13 05:06:37;;;;;;;;;;;;;;;20.59;43.00;101138.41;5005560;28;4214;-64
2023/06/13 05:09:06;;;;;;;;;;;;;;;20.74;42.62;101131.25;5006558;28;4475;-64
2023/06/13 05:11:32;;;;;;;;;;;;;;;20.75;42.64;101132.72;5005487;28;4251;-64
2023/06/13 05:13:59;;;;;;;;;;;;;;;20.72;42.92;101143.41;5003383;28;4074;-64
2023/06/13 05:16:29;;;;;;;;;;;;;;;20.73;42.99;101139.16;5002731;28;4061;-64
2023/06/13 05:19:00;;;;;;;;;;;;;;;20.77;43.17;101142.19;5006612;28;4338;-64
2023/06/13 05:21:27;;;;;;;;;;;;;;;20.74;43.25;101149.25;5006873;28;4561;-64
2023/06/13 05:23:53;;;;;;;;;;;;;;;20.83;43.14;101138.88;5004588;28;3987;-64
2023/06/13 05:26:20;;;;;;;;;;;;;;;20.78;43.20;101137.94;5005227;28;4075;-64
2023/06/13 05:28:47;;;;;;;;;;;;;;;20.91;43.08;101137.16;5004842;28;4310;-64
2023/06/13 05:31:13;;;;;;;;;;;;;;;20.99;43.16;101136.78;5005365;28;4180;-64
2023/06/13 05:33:40;;;;;;;;;;;;;;;20.92;43.39;101135.75;5003453;28;4397;-64
2023/06/13 05:36:06;;;;;;;;;;;;;;;21.06;43.01;101132.06;5003719;28;4239;-64
2023/06/13 05:38:33;;;;;;;;;;;;;;;21.11;43.15;101133.75;5004037;28;4475;-64
2023/06/13 05:40:59;;;;;;;;;;;;;;;21.02;43.32;101137.63;5005781;28;4152;-64
2023/06/13 05:43:25;;;;;;;;;;;;;;;21.05;43.09;101131.34;5001099;28;4081;-64
2023/06/13 05:45:52;;;;;;;;;;;;;;;21.01;43.15;101136.16;5000471;28;4131;-64
2023/06/13 05:48:18;;;;;;;;;;;;;;;21.06;43.14;101135.69;5001275;28;5129;-64
2023/06/13 05:50:45;;;;;;;;;;;;;;;21.14;42.93;101126.69;4996969;28;4163;-64
2023/06/13 05:53:11;;;;;;;;;;;;;;;21.13;43.26;101125.22;5003957;28;3963;-64
2023/06/13 05:55:38;;;;;;;;;;;;;;;21.27;42.78;101117.22;5009486;28;4132;-64
2023/06/13 05:58:05;;;;;;;;;;;;;;;21.26;42.67;101115.75;5008031;28;4125;-64
2023/06/13 06:00:31;;;;;;;;;;;;;;;21.31;42.66;101122.44;5004080;28;4163;-64
2023/06/13 06:03:03;;;;;;;;;;;;;;;21.29;42.75;101116.59;5007692;28;4639;-64
2023/06/13 06:05:30;;;;;;;;;;;;;;;21.28;42.87;101107.22;5008243;28;4326;-64
2023/06/13 06:07:56;;;;;;;;;;;;;;;21.27;43.00;101102.84;5000568;28;4216;-64
2023/06/13 06:10:23;;;;;;;;;;;;;;;21.28;43.15;101112.22;5005485;28;4147;-64
2023/06/13 06:12:49;;;;;;;;;;;;;;;21.26;43.12;101110.00;5002925;28;4428;-63
2023/06/13 06:15:15;;;;;;;;;;;;;;;21.32;43.23;101112.41;5001845;28;4523;-64
2023/06/13 06:17:42;;;;;;;;;;;;;;;21.26;43.39;101118.63;5004348;28;4165;-64
2023/06/13 06:20:09;;;;;;;;;;;;;;;21.12;44.22;101124.47;5003383;28;4384;-66
2023/06/13 06:22:35;;;;;;;;;;;;;;;21.04;43.28;101118.31;5002789;28;4097;-65
2023/06/13 06:25:02;;;;;;;;;;;;;;;20.94;43.57;101126.47;5002455;28;4147;-64
2023/06/13 06:27:28;;;;;;;;;;;;;;;20.93;43.09;101113.47;5003126;28;4138;-65
2023/06/13 06:29:55;;;;;;;;;;;;;;;20.93;43.04;101114.19;5003800;28;4047;-65
2023/06/13 06:32:21;;;;;;;;;;;;;;;20.82;43.08;101114.38;5003557;28;4094;-65
2023/06/13 06:34:48;;;;;;;;;;;;;;;20.82;43.25;101120.88;5001622;28;4331;-66
2023/06/13 06:37:14;;;;;;;;;;;;;;;20.92;43.04;101117.75;5001503;28;4020;-65
2023/06/13 06:39:41;;;;;;;;;;;;;;;20.85;43.07;101110.94;5006800;28;4044;-65
2023/06/13 06:42:07;;;;;;;;;;;;;;;20.93;43.12;101119.97;5000899;28;3999;-69
2023/06/13 06:44:54;;;;;;;;;;;;;;;20.90;43.87;101114.75;5007772;28;4204;-66
2023/06/13 06:47:20;;;;;;;;;;;;;;;21.05;44.64;101107.53;5002893;28;4152;-62
2023/06/13 06:49:47;;;;;;;;;;;;;;;20.93;43.59;101102.69;5007037;28;4069;-65
2023/06/13 06:52:14;;;;;;;;;;;;;;;20.92;42.47;101106.97;5003658;28;4182;-64
2023/06/13 06:54:41;;;;;;;;;;;;;;;20.83;41.37;101105.09;4989654;28;5054;-63
2023/06/13 06:57:07;;;;;;;;;;;;;;;20.65;40.94;101101.31;4989618;28;4022;-62
2023/06/13 06:59:34;;;;;;;;;;;;;;;20.89;40.81;101102.50;5007031;28;4246;-63
2023/06/13 07:02:00;;;;;;;;;;;;;;;21.20;40.48;101112.59;5004478;28;4792;-63
2023/06/13 07:04:27;;;;;;;;;;;;;;;21.30;40.50;101109.44;5004575;28;4320;-63
2023/06/13 07:06:53;;;;;;;;;;;;;;;21.39;40.51;101105.53;5007318;28;4147;-63
2023/06/13 07:09:20;;;;;;;;;;;;;;;21.39;40.16;101107.66;5006672;28;4228;-63
2023/06/13 07:11:46;;;;;;;;;;;;;;;21.50;39.96;101109.66;5007588;28;3989;-63
2023/06/13 07:14:13;;;;;;;;;;;;;;;21.47;39.91;101108.81;5004431;28;4125;-63
2023/06/13 07:16:39;;;;;;;;;;;;;;;21.51;39.46;101111.91;5004066;28;4071;-62
2023/06/13 07:19:06;;;;;;;;;;;;;;;21.53;39.39;101117.00;5001431;28;4025;-62
2023/06/13 07:21:32;;;;;;;;;;;;;;;21.51;39.19;101111.16;5006446;28;4186;-63
2023/06/13 07:23:59;;;;;;;;;;;;;;;21.51;39.14;101105.41;4998396;28;4240;-63
2023/06/13 07:26:33;;;;;;;;;;;;;;;21.53;39.01;101111.22;5008546;28;3983;-63
2023/06/13 07:28:59;;;;;;;;;;;;;;;21.56;38.97;101098.41;4987271;28;4162;-63
2023/06/13 07:31:26;;;;;;;;;;;;;;;21.63;38.81;101100.16;5004565;28;4135;-62
2023/06/13 07:33:52;;;;;;;;;;;;;;;21.67;38.79;101099.59;5006390;28;4132;-63
2023/06/13 07:36:19;;;;;;;;;;;;;;;21.60;38.77;101089.97;5002100;28;4002;-63
2023/06/13 07:38:45;;;;;;;;;;;;;;;21.55;38.68;101091.16;5004044;28;4172;-64
2023/06/13 07:41:12;;;;;;;;;;;;;;;21.56;38.36;101094.78;5003356;28;4074;-63
2023/06/13 07:43:38;;;;;;;;;;;;;;;21.59;38.23;101094.22;5004797;28;4232;-63
2023/06/13 07:46:06;;;;;;;;;;;;;;;21.65;38.31;101097.38;5003805;28;4148;-64
2023/06/13 07:48:32;;;;;;;;;;;;;;;21.76;38.40;101101.44;5001923;28;4110;-64
2023/06/13 07:50:59;;;;;;;;;;;;;;;21.80;38.73;101098.75;5000949;28;4778;-62
2023/06/13 07:53:25;;;;;;;;;;;;;;;21.83;38.34;101100.34;5007056;28;4192;-63
2023/06/13 07:55:54;;;;;;;;;;;;;;;21.86;38.69;101093.25;5006873;28;4216;-62
2023/06/13 07:58:21;;;;;;;;;;;;;;;21.93;38.53;101091.38;5011477;28;4212;-63
2023/06/13 08:00:47;;;;;;;;;;;;;;;21.95;39.04;101095.09;5007884;28;5099;-63
2023/06/13 08:03:13;;;;;;;;;;;;;;;21.95;38.97;101097.97;5006394;28;5269;-63
2023/06/13 08:05:40;;;;;;;;;;;;;;;21.94;38.57;101093.63;5005930;28;4109;-63
2023/06/13 08:08:07;;;;;;;;;;;;;;;21.95;38.71;101088.59;5007542;28;4050;-63
2023/06/13 08:10:33;;;;;;;;;;;;;;;21.97;38.81;101082.91;5005992;28;4254;-64
2023/06/13 08:13:00;;;;;;;;;;;;;;;22.00;38.79;101081.59;5005339;28;4350;-64
2023/06/13 08:15:26;;;;;;;;;;;;;;;21.98;38.85;101087.28;4991536;28;4117;-64
2023/06/13 08:17:54;;;;;;;;;;;;;;;21.99;38.63;101088.00;5004564;28;4572;-64
2023/06/13 08:20:21;;;;;;;;;;;;;;;21.98;38.66;101087.28;5007256;28;4205;-64
2023/06/13 08:22:48;;;;;;;;;;;;;;;21.97;39.05;101082.91;5009643;28;4259;-64
2023/06/13 08:25:14;;;;;;;;;;;;;;;22.04;38.92;101090.44;4997329;28;4159;-65
2023/06/13 08:27:42;;;;;;;;;;;;;;;22.03;39.00;101083.16;5007751;28;4414;-65
2023/06/13 08:30:09;;;;;;;;;;;;;;;22.04;38.93;101078.16;5013035;28;4152;-65
2023/06/13 08:32:36;;;;;;;;;;;;;;;22.06;38.94;101081.88;5013330;28;4506;-65
2023/06/13 08:35:03;;;;;;;;;;;;;;;22.08;39.20;101084.06;4996336;28;4516;-65
2023/06/13 08:37:29;;;;;;;;;;;;;;;22.08;39.28;101090.59;5007713;28;4515;-68
2023/06/13 08:39:56;;;;;;;;;;;;;;;22.11;39.21;101083.53;5013936;28;4227;-70
2023/06/13 08:42:22;;;;;;;;;;;;;;;22.11;39.40;101095.06;5009923;28;4416;-67
2023/06/13 08:44:49;;;;;;;;;;;;;;;22.12;39.28;101087.13;5008675;28;4107;-65
2023/06/13 08:47:16;;;;;;;;;;;;;;;22.12;39.40;101096.53;5012164;28;4173;-65
2023/06/13 08:50:03;;;;;;;;;;;;;;;22.15;39.65;101095.25;5005600;28;4056;-65
2023/06/13 08:52:30;;;;;;;;;;;;;;;22.13;39.66;101098.03;5007439;28;4186;-65
2023/06/13 08:54:56;;;;;;;;;;;;;;;22.13;39.64;101098.03;5009350;28;4010;-65
2023/06/13 08:57:45;;;;;;;;;;;;;;;22.13;39.49;101097.28;5010217;28;4221;-65
2023/06/13 09:00:12;;;;;;;;;;;;;;;22.14;39.64;101093.00;5009675;28;4129;-65
2023/06/13 09:02:38;;;;;;;;;;;;;;;22.14;39.79;101102.38;5003211;28;4234;-64
2023/06/13 09:05:05;;;;;;;;;;;;;;;22.14;40.72;101105.28;5005373;28;4495;-64
2023/06/13 09:07:31;;;;;;;;;;;;;;;22.20;40.61;101095.41;5006739;28;3961;-63
2023/06/13 09:09:58;;;;;;;;;;;;;;;22.20;40.45;101095.41;5010662;28;4988;-63
2023/06/13 09:12:24;;;;;;;;;;;;;;;22.20;40.27;101101.19;5013786;28;4182;-64
2023/06/13 09:14:51;;;;;;;;;;;;;;;22.21;40.27;101097.66;5007310;28;4298;-64
2023/06/13 09:17:17;;;;;;;;;;;;;;;22.21;40.56;101094.00;5012003;28;4080;-60
2023/06/13 09:19:44;;;;;;;;;;;;;;;22.27;40.18;101097.91;5004134;28;4123;-67
2023/06/13 09:22:11;;;;;;;;;;;;;;;22.55;39.88;101100.50;5005913;28;4243;-67
2023/06/13 09:24:37;;;;;;;;;;;;;;;22.72;39.62;101096.88;5010631;28;4223;-67
2023/06/13 09:27:04;;;;;;;;;;;;;;;22.70;39.42;101107.59;5006109;28;4139;-71
2023/06/13 09:29:31;;;;;;;;;;;;;;;22.57;40.18;101101.31;5011143;28;4036;-65
2023/06/13 09:32:05;;;;;;;;;;;;;;;22.53;40.00;101095.38;5006383;28;4170;-66
2023/06/13 09:34:33;;;;;;;;;;;;;;;22.49;40.28;101089.44;5005648;28;3964;-66
2023/06/13 09:36:59;;;;;;;;;;;;;;;22.48;40.33;101102.41;5010608;28;4223;-65
2023/06/13 09:39:27;;;;;;;;;;;;;;;22.49;40.18;101103.88;5012933;28;4049;-65
2023/06/13 09:41:55;;;;;;;;;;;;;;;22.54;40.21;101102.66;5014604;28;4528;-65
2023/06/13 09:44:21;;;;;;;;;;;;;;;22.59;40.37;101089.88;5010847;28;4000;-65
2023/06/13 09:46:48;;;;;;;;;;;;;;;22.64;40.50;101101.59;5012093;28;4072;-65
2023/06/13 09:49:16;;;;;;;;;;;;;;;22.64;40.61;101096.53;5007689;28;4095;-64
2023/06/13 09:51:42;;;;;;;;;;;;;;;22.64;40.55;101099.44;5007533;28;3952;-64
2023/06/13 09:54:09;;;;;;;;;;;;;;;22.71;40.75;101097.53;5008202;28;3961;-65
2023/06/13 09:56:35;;;;;;;;;;;;;;;22.67;40.84;101094.47;5007082;28;3932;-64
2023/06/13 09:59:01;;;;;;;;;;;;;;;22.68;40.97;101098.88;5002825;28;4129;-65
2023/06/13 10:01:28;;;;;;;;;;;;;;;22.64;40.74;101095.81;5001467;28;4168;-65
2023/06/13 10:03:55;;;;;;;;;;;;;;;22.62;40.75;101095.72;5004139;28;4125;-65
2023/06/13 10:06:23;;;;;;;;;;;;;;;22.64;41.08;101092.94;5006712;28;4190;-66
2023/06/13 10:08:49;;;;;;;;;;;;;;;22.64;41.27;101101.59;5003707;28;4316;-66
2023/06/13 10:11:18;;;;;;;;;;;;;;;22.61;40.75;101097.13;5007344;28;5042;-66
2023/06/13 10:13:49;;;;;;;;;;;;;;;22.59;41.74;101089.13;5007021;28;4107;-66
2023/06/13 10:16:15;;;;;;;;;;;;;;;22.56;41.31;101082.53;5006504;28;4035;-66
2023/06/13 10:18:42;;;;;;;;;;;;;;;22.57;41.57;101075.34;5009290;28;4222;-70
2023/06/13 10:21:11;;;;;;;;;;;;;;;22.55;41.46;101075.25;5010366;28;4142;-70
2023/06/13 10:23:40;;;;;;;;;;;;;;;22.55;41.42;101078.16;5005945;28;4083;-75
2023/06/13 10:26:08;;;;;;;;;;;;;;;22.59;41.13;101072.56;5006859;28;4108;-74
2023/06/13 10:28:50;;;;;;;;;;;;;;;22.58;41.29;101076.09;5007491;28;4032;-75
2023/06/13 10:31:26;;;;;;;;;;;;;;;22.70;41.18;101070.81;5005657;28;4168;-74
2023/06/13 10:34:09;;;;;;;;;;;;;;;22.82;41.26;101064.06;5008288;28;4176;-75
2023/06/13 10:36:56;;;;;;;;;;;;;;;22.89;40.98;101069.41;5008213;28;4471;-75
2023/06/13 10:39:34;;;;;;;;;;;;;;;22.92;40.66;101065.19;5007285;28;4367;-75
2023/06/13 10:42:16;;;;;;;;;;;;;;;22.92;40.42;101068.06;5000197;28;4149;-76
2023/06/13 10:45:09;;;;;;;;;;;;;;;22.95;40.62;101066.75;5013039;28;4024;-77
2023/06/13 10:47:36;;;;;;;;;;;;;;;22.97;40.25;101063.91;5007906;28;4144;-75
2023/06/13 10:50:03;;;;;;;;;;;;;;;22.99;40.49;101061.16;5007988;28;4591;-75
2023/06/13 10:52:30;;;;;;;;;;;;;;;23.00;40.24;101065.53;5006831;28;4162;-77
2023/06/13 10:55:01;;;;;;;;;;;;;;;23.07;40.55;101060.00;5008774;28;4337;-75
2023/06/13 10:57:47;;;;;;;;;;;;;;;23.18;40.21;101061.84;5007125;28;4008;-78
2023/06/13 11:00:25;;;;;;;;;;;;;;;23.23;40.02;101060.59;5012088;28;3910;-78
2023/06/13 11:03:00;;;;;;;;;;;;;;;23.20;40.05;101050.38;5004320;28;3981;-76
2023/06/13 11:05:51;;;;;;;;;;;;;;;23.08;40.37;101055.69;4985863;28;4158;-79
2023/06/13 11:08:19;;;;;;;;;;;;;;;23.19;40.60;101057.56;4993612;28;4456;-77
2023/06/13 11:10:46;;;;;;;;;;;;;;;23.21;40.30;101051.88;5013176;28;4289;-76
2023/06/13 11:13:19;;;;;;;;;;;;;;;23.23;40.04;101049.06;5010297;28;4100;-76
2023/06/13 11:15:46;;;;;;;;;;;;;;;23.24;40.03;101050.53;5009987;28;4028;-75
2023/06/13 11:18:15;;;;;;;;;;;;;;;23.15;39.94;101042.97;5009319;28;4018;-78
2023/06/13 11:20:57;;;;;;;;;;;;;;;23.28;39.96;101050.69;4965111;28;4289;-77
2023/06/13 11:23:46;;;;;;;;;;;;;;;23.30;40.18;101044.25;4965383;28;4101;-77
2023/06/13 11:27:12;;;;;;;;;;;;;;;23.29;40.16;101049.25;4998923;28;4116;-77
2023/06/13 11:29:48;;;;;;;;;;;;;;;23.29;40.29;101043.47;4974655;28;4034;-77
2023/06/13 11:32:14;;;;;;;;;;;;;;;23.29;40.34;101037.69;5007675;28;4365;-76
2023/06/13 11:34:51;;;;;;;;;;;;;;;23.27;40.16;101037.63;5006956;28;4341;-75
2023/06/13 11:37:20;;;;;;;;;;;;;;;23.36;40.35;101050.97;5004434;28;4491;-75
2023/06/13 11:39:47;;;;;;;;;;;;;;;23.39;40.17;101049.66;5002655;28;4980;-73
2023/06/13 11:42:23;;;;;;;;;;;;;;;23.44;40.36;101046.91;5005635;28;4212;-74
2023/06/13 11:44:49;;;;;;;;;;;;;;;23.46;40.51;101059.28;4998940;28;4412;-74
2023/06/13 11:47:16;;;;;;;;;;;;;;;23.52;40.38;101055.88;5006713;28;4186;-74
2023/06/13 11:49:53;;;;;;;;;;;;;;;23.56;40.45;101058.91;5007885;28;4044;-75
2023/06/13 11:52:19;;;;;;;;;;;;;;;23.53;40.11;101051.59;5005458;28;4767;-76
2023/06/13 11:54:47;;;;;;;;;;;;;;;23.42;40.27;101047.56;5005750;28;4076;-75
2023/06/13 11:57:14;;;;;;;;;;;;;;;23.33;40.11;101046.53;5003440;28;4134;-73
2023/06/13 11:59:40;;;;;;;;;;;;;;;23.41;40.54;101052.63;5006398;28;4049;-74
2023/06/13 12:02:08;;;;;;;;;;;;;;;23.58;40.38;101053.22;5008280;28;4179;-75
2023/06/13 12:04:34;;;;;;;;;;;;;;;23.60;40.25;101050.41;5007347;28;4313;-75
2023/06/13 12:07:07;;;;;;;;;;;;;;;23.70;40.33;101042.06;5008755;28;4103;-73
2023/06/13 12:09:33;;;;;;;;;;;;;;;23.63;40.27;101043.28;5010419;28;4011;-74
2023/06/13 12:12:00;;;;;;;;;;;;;;;23.46;40.28;101032.53;5001393;28;4014;-74
2023/06/13 12:14:28;;;;;;;;;;;;;;;23.39;40.50;101043.88;5003496;28;4183;-75
2023/06/13 12:16:55;;;;;;;;;;;;;;;23.38;40.63;101039.50;5002717;28;4184;-74
2023/06/13 12:19:22;;;;;;;;;;;;;;;23.36;40.39;101042.28;5005499;28;4026;-74
2023/06/13 12:21:48;;;;;;;;;;;;;;;23.34;40.67;101030.69;5004096;28;4226;-75
2023/06/13 12:24:16;;;;;;;;;;;;;;;23.37;40.72;101035.13;5005584;28;4098;-74
2023/06/13 12:26:44;;;;;;;;;;;;;;;23.44;40.82;101033.19;4994852;28;4548;-74
2023/06/13 12:29:11;;;;;;;;;;;;;;;23.47;40.76;101034.00;5001282;28;4269;-69
2023/06/13 12:31:41;;;;;;;;;;;;;;;23.44;40.82;101027.44;5003775;28;4023;-70
2023/06/13 12:34:13;;;;;;;;;;;;;;;23.41;41.10;101023.72;5002771;28;4146;-70
2023/06/13 12:36:44;;;;;;;;;;;;;;;23.40;40.66;101024.38;5004434;28;4787;-70
2023/06/13 12:39:14;;;;;;;;;;;;;;;23.39;41.26;101012.09;5004982;28;3861;-70
2023/06/13 12:41:44;;;;;;;;;;;;;;;23.37;41.29;101017.78;5006075;28;4492;-70
2023/06/13 12:44:10;;;;;;;;;;;;;;;23.37;41.04;101023.56;5013290;28;4551;-70
2023/06/13 12:46:38;;;;;;;;;;;;;;;23.37;41.04;101023.56;5008917;28;4480;-70
2023/06/13 12:49:11;;;;;;;;;;;;;;;23.37;41.50;101017.78;5004149;28;4168;-69
2023/06/13 12:51:45;;;;;;;;;;;;;;;23.37;41.76;101011.28;5009290;28;4497;-69
2023/06/13 12:54:11;;;;;;;;;;;;;;;23.36;41.33;101004.72;5005462;28;4146;-69